Time;durP1;ratioP1;P1;durP2;ratioP2;P2;SDS_P1;SDS_P2;PMS_P1;PMS_P2;Temp;Humidity;BMP_temperature;BMP_pressure;BME280_temperature;BME280_humidity;BME280_pressure;Samples;Min_cycle;Max_cycle;Signal;HPM_P1;HPM_P2
2022/06/12 00:00:42;;;;;;;8.90;5.27;;;14.50;99.90;;;;;;5050026;28;20760;-49
2022/06/12 00:03:11;;;;;;;11.53;5.70;;;14.40;99.90;;;;;;5060356;28;20883;-44
2022/06/12 00:05:41;;;;;;;7.60;4.97;;;14.40;99.90;;;;;;5038321;28;20208;-44
2022/06/12 00:08:09;;;;;;;8.73;5.10;;;14.30;99.90;;;;;;5051606;28;20202;-47
2022/06/12 00:10:39;;;;;;;6.60;4.57;;;14.30;99.90;;;;;;5045822;28;20314;-46
2022/06/12 00:13:08;;;;;;;12.97;6.30;;;14.20;99.90;;;;;;5044017;28;20196;-45
2022/06/12 00:15:37;;;;;;;8.50;5.37;;;14.20;99.90;;;;;;5044845;28;20211;-46
2022/06/12 00:18:04;;;;;;;10.10;4.73;;;14.20;99.90;;;;;;5043184;28;20268;-44
2022/06/12 00:20:32;;;;;;;7.93;4.70;;;14.20;99.90;;;;;;5042428;28;20586;-44
2022/06/12 00:22:59;;;;;;;10.70;5.03;;;14.30;99.90;;;;;;5036513;28;20264;-45
2022/06/12 00:25:30;;;;;;;10.70;4.53;;;14.20;99.90;;;;;;5056707;28;20199;-46
2022/06/12 00:27:57;;;;;;;9.47;5.00;;;14.10;99.90;;;;;;5051242;28;20191;-46
2022/06/12 00:30:26;;;;;;;9.87;5.07;;;14.00;99.90;;;;;;5056371;28;20235;-46
2022/06/12 00:32:55;;;;;;;10.97;5.37;;;14.00;99.90;;;;;;5041613;28;20187;-49
2022/06/12 00:35:24;;;;;;;8.53;4.93;;;14.00;99.90;;;;;;5045271;28;20675;-43
2022/06/12 00:37:51;;;;;;;10.10;4.30;;;14.00;99.90;;;;;;5031836;28;20333;-46
2022/06/12 00:40:18;;;;;;;9.47;4.73;;;14.10;99.90;;;;;;5051493;28;20211;-45
2022/06/12 00:42:49;;;;;;;8.77;4.60;;;14.00;99.90;;;;;;5042218;28;20203;-45
2022/06/12 00:45:38;;;;;;;7.80;4.73;;;13.90;99.90;;;;;;5044536;28;20195;-44
2022/06/12 00:48:09;;;;;;;7.17;4.90;;;13.90;99.90;;;;;;5043062;28;20676;-44
2022/06/12 00:50:38;;;;;;;9.43;4.53;;;13.80;99.90;;;;;;5043672;28;20581;-45
2022/06/12 00:53:06;;;;;;;8.43;4.60;;;13.80;99.90;;;;;;5039254;28;20196;-46
2022/06/12 00:55:39;;;;;;;5.67;4.17;;;13.80;99.90;;;;;;5040439;28;20550;-45
2022/06/12 00:58:09;;;;;;;8.77;3.90;;;13.90;99.90;;;;;;5052680;28;20948;-48
2022/06/12 01:00:38;;;;;;;10.50;4.30;;;13.90;99.90;;;;;;5044655;28;20219;-44
2022/06/12 01:03:07;;;;;;;7.67;4.47;;;13.90;99.90;;;;;;5042808;28;20302;-43
2022/06/12 01:08:22;;;;;;;6.10;4.17;;;13.70;99.90;;;;;;5051782;28;20266;-44
2022/06/12 01:10:53;;;;;;;8.83;4.27;;;13.70;99.90;;;;;;5040942;28;20253;-44
2022/06/12 01:13:23;;;;;;;5.23;3.80;;;13.70;99.90;;;;;;5046076;28;20199;-44
2022/06/12 01:15:54;;;;;;;7.57;4.30;;;13.60;99.90;;;;;;5048949;28;20202;-46
2022/06/12 01:18:25;;;;;;;8.53;3.80;;;13.60;99.90;;;;;;5063650;28;20227;-47
2022/06/12 01:21:02;;;;;;;6.47;3.70;;;13.60;99.90;;;;;;5056857;28;20218;-46
2022/06/12 01:23:51;;;;;;;9.07;3.67;;;13.50;99.90;;;;;;5060998;28;20199;-45
2022/06/12 01:26:50;;;;;;;6.83;3.93;;;13.50;99.90;;;;;;5047153;28;20203;-44
2022/06/12 01:29:25;;;;;;;6.50;3.80;;;13.40;99.90;;;;;;5054280;28;20279;-45
2022/06/12 01:31:59;;;;;;;7.97;3.87;;;13.40;99.90;;;;;;5049805;28;20190;-44
2022/06/12 01:34:37;;;;;;;7.00;3.90;;;13.30;99.90;;;;;;5053573;28;20237;-47
2022/06/12 01:37:20;;;;;;;11.93;4.67;;;13.30;99.90;;;;;;5056018;28;20970;-44
2022/06/12 01:39:54;;;;;;;5.60;3.87;;;13.20;99.90;;;;;;5041359;28;20223;-49
2022/06/12 01:42:27;;;;;;;6.20;3.43;;;13.20;99.90;;;;;;5054286;28;20206;-44
2022/06/12 01:45:10;;;;;;;9.40;3.97;;;13.20;99.90;;;;;;5041202;28;20195;-44
2022/06/12 01:47:50;;;;;;;6.40;3.83;;;13.30;99.90;;;;;;5042875;28;20652;-47
2022/06/12 01:50:22;;;;;;;6.40;4.00;;;13.30;99.90;;;;;;5063116;28;20226;-49
2022/06/12 01:52:58;;;;;;;5.00;3.70;;;13.20;99.90;;;;;;5059330;28;20204;-45
2022/06/12 01:55:29;;;;;;;10.13;4.40;;;;;;;;;;5062897;28;20202;-44
2022/06/12 01:58:01;;;;;;;7.47;3.83;;;;;;;;;;5038469;28;20203;-44
2022/06/12 02:00:33;;;;;;;7.47;4.30;;;;;;;;;;5054571;28;20215;-44
2022/06/12 02:03:08;;;;;;;6.20;3.77;;;;;;;;;;5039195;28;20215;-43
2022/06/12 02:05:45;;;;;;;12.23;3.83;;;12.80;99.90;;;;;;5042582;28;20198;-47
2022/06/12 02:08:17;;;;;;;6.53;3.90;;;13.30;99.90;;;;;;5043399;28;20199;-43
2022/06/12 02:10:49;;;;;;;10.87;4.40;;;12.90;99.90;;;;;;5033236;28;20233;-46
2022/06/12 02:13:22;;;;;;;6.50;4.13;;;12.90;99.90;;;;;;5049443;28;20248;-43
2022/06/12 02:15:54;;;;;;;6.83;4.10;;;12.60;99.90;;;;;;5039940;28;20241;-44
2022/06/12 02:18:29;;;;;;;7.37;4.20;;;12.90;99.90;;;;;;5060440;28;20219;-43
2022/06/12 02:21:02;;;;;;;8.80;3.70;;;12.80;99.90;;;;;;5054228;28;20214;-44
2022/06/12 02:23:33;;;;;;;11.73;4.30;;;12.70;99.90;;;;;;5043548;28;20555;-44
2022/06/12 02:26:02;;;;;;;8.70;4.30;;;12.70;99.90;;;;;;5041899;28;20206;-43
2022/06/12 02:28:41;;;;;;;9.77;3.93;;;12.70;99.90;;;;;;5042845;28;20285;-46
2022/06/12 02:31:13;;;;;;;6.63;4.43;;;12.70;99.90;;;;;;5042705;28;20215;-44
2022/06/12 02:33:44;;;;;;;7.07;4.03;;;12.60;99.90;;;;;;5041197;28;20291;-48
2022/06/12 02:36:17;;;;;;;8.17;4.13;;;12.60;99.90;;;;;;5045025;28;20195;-44
2022/06/12 02:38:51;;;;;;;7.30;3.70;;;12.80;99.90;;;;;;5044144;28;20219;-45
2022/06/12 02:41:23;;;;;;;6.70;3.73;;;12.50;99.90;;;;;;5060491;28;20214;-44
2022/06/12 02:43:55;;;;;;;7.07;3.77;;;12.50;99.90;;;;;;5039034;28;20199;-46
2022/06/12 02:46:33;;;;;;;6.80;4.33;;;12.50;99.90;;;;;;5062689;28;20230;-43
2022/06/12 02:49:00;;;;;;;5.47;3.90;;;12.40;99.90;;;;;;5059687;28;20198;-43
2022/06/12 02:51:35;;;;;;;6.03;4.00;;;12.10;99.90;;;;;;5056260;28;20225;-44
2022/06/12 02:54:11;;;;;;;12.90;4.80;;;12.40;99.90;;;;;;5059851;28;20197;-43
2022/06/12 02:56:46;;;;;;;4.90;3.50;;;12.30;99.90;;;;;;5060203;28;20200;-45
2022/06/12 02:59:25;;;;;;;5.40;3.60;;;12.20;99.90;;;;;;5042675;28;20219;-43
2022/06/12 03:02:14;;;;;;;8.47;3.87;;;12.20;99.90;;;;;;5044813;28;20202;-46
2022/06/12 03:04:48;;;;;;;7.10;3.80;;;12.10;99.90;;;;;;5040719;28;20621;-44
2022/06/12 03:07:15;;;;;;;5.47;3.90;;;12.10;99.90;;;;;;5057751;28;20203;-43
2022/06/12 03:09:43;;;;;;;5.83;3.73;;;12.30;99.90;;;;;;5040550;28;20239;-45
2022/06/12 03:12:10;;;;;;;6.87;3.80;;;12.00;99.90;;;;;;5042353;28;20200;-43
2022/06/12 03:14:37;;;;;;;9.20;4.23;;;11.90;99.90;;;;;;5044854;28;20218;-44
2022/06/12 03:17:06;;;;;;;5.70;3.60;;;12.00;99.90;;;;;;5055240;28;20187;-43
2022/06/12 03:19:39;;;;;;;9.60;4.23;;;12.00;99.90;;;;;;5054403;28;20230;-45
2022/06/12 03:22:14;;;;;;;10.13;4.40;;;12.10;99.90;;;;;;5063953;28;20259;-48
2022/06/12 03:24:55;;;;;;;7.53;3.53;;;12.10;99.90;;;;;;5047258;28;20656;-47
2022/06/12 03:27:49;;;;;;;5.67;3.93;;;12.20;99.90;;;;;;5058612;28;20281;-44
2022/06/12 03:30:22;;;;;;;7.17;4.27;;;12.20;99.90;;;;;;5056665;28;20218;-46
2022/06/12 03:33:03;;;;;;;11.33;4.33;;;12.10;99.90;;;;;;5055493;28;20196;-44
2022/06/12 03:35:42;;;;;;;6.27;4.00;;;12.10;99.90;;;;;;5051211;28;20569;-46
2022/06/12 03:38:16;;;;;;;6.63;3.70;;;12.00;99.90;;;;;;5058152;28;20296;-46
2022/06/12 03:40:54;;;;;;;5.27;4.00;;;12.00;99.90;;;;;;5057286;28;20229;-45
2022/06/12 03:43:30;;;;;;;4.57;3.60;;;11.90;99.90;;;;;;5053427;28;20206;-46
2022/06/12 03:46:06;;;;;;;8.10;3.70;;;11.90;99.90;;;;;;5048135;28;20217;-44
2022/06/12 03:48:42;;;;;;;5.13;3.73;;;11.90;99.90;;;;;;5054646;28;20278;-46
2022/06/12 03:51:16;;;;;;;5.63;3.50;;;11.90;99.90;;;;;;5051693;28;20219;-43
2022/06/12 03:53:50;;;;;;;8.43;4.40;;;11.90;99.90;;;;;;5043157;28;20198;-47
2022/06/12 03:59:14;;;;;;;5.03;3.97;;;12.00;99.90;;;;;;5045169;28;20301;-46
2022/06/12 04:01:43;;;;;;;7.00;3.77;;;12.00;99.90;;;;;;5046246;28;20210;-44
2022/06/12 04:04:13;;;;;;;7.23;3.17;;;12.10;99.90;;;;;;5060421;28;20249;-44
2022/06/12 04:06:41;;;;;;;6.03;3.67;;;12.10;99.90;;;;;;5042722;28;20199;-44
2022/06/12 04:09:14;;;;;;;4.03;3.37;;;12.20;99.90;;;;;;5049088;28;20202;-44
2022/06/12 04:11:42;;;;;;;6.63;3.70;;;12.20;99.90;;;;;;5043250;28;20203;-46
2022/06/12 04:14:14;;;;;;;6.53;4.27;;;12.20;99.90;;;;;;5064575;28;20203;-44
2022/06/12 04:16:45;;;;;;;8.60;4.27;;;12.20;99.90;;;;;;5043387;28;20203;-46
2022/06/12 04:19:18;;;;;;;6.53;3.30;;;12.30;99.90;;;;;;5047772;28;20215;-45
2022/06/12 04:21:50;;;;;;;5.33;3.80;;;12.30;99.90;;;;;;5049275;28;20196;-44
2022/06/12 04:24:22;;;;;;;7.33;3.47;;;12.20;99.90;;;;;;5046540;28;20261;-48
2022/06/12 04:26:54;;;;;;;7.77;3.60;;;12.30;99.90;;;;;;5051185;28;20186;-46
2022/06/12 04:29:25;;;;;;;7.00;3.73;;;12.40;99.90;;;;;;5045950;28;20201;-48
2022/06/12 04:31:56;;;;;;;8.17;4.10;;;12.30;99.90;;;;;;5057005;28;20215;-44
2022/06/12 04:34:28;;;;;;;8.93;3.87;;;12.30;99.90;;;;;;5047453;28;20203;-44
2022/06/12 04:36:57;;;;;;;7.13;3.50;;;12.40;99.90;;;;;;5046423;28;20229;-46
2022/06/12 04:39:28;;;;;;;8.20;3.43;;;12.50;99.90;;;;;;5045881;28;20229;-48
2022/06/12 04:41:55;;;;;;;6.73;3.67;;;12.60;99.90;;;;;;5054637;28;20692;-46
2022/06/12 04:44:23;;;;;;;8.80;4.07;;;12.70;99.90;;;;;;5045570;28;20537;-47
2022/06/12 04:46:53;;;;;;;9.03;3.93;;;12.70;99.90;;;;;;5044547;28;20202;-44
2022/06/12 04:49:24;;;;;;;8.83;4.27;;;12.80;99.90;;;;;;5049871;28;20680;-47
2022/06/12 04:51:54;;;;;;;5.63;4.10;;;12.80;99.90;;;;;;5057052;28;20194;-49
2022/06/12 04:54:22;;;;;;;9.13;3.80;;;12.90;99.90;;;;;;5040765;28;20203;-47
2022/06/12 04:56:50;;;;;;;8.80;3.83;;;13.00;99.90;;;;;;5053578;28;20479;-45
2022/06/12 04:59:19;;;;;;;8.63;3.73;;;13.10;99.90;;;;;;5050720;28;20223;-45
2022/06/12 05:01:47;;;;;;;7.73;4.00;;;13.20;99.90;;;;;;5057772;28;20210;-46
2022/06/12 05:04:15;;;;;;;9.37;3.80;;;13.30;99.90;;;;;;5059346;28;20559;-47
2022/06/12 05:06:44;;;;;;;5.60;3.20;;;13.40;99.90;;;;;;5048276;28;20927;-44
2022/06/12 05:09:14;;;;;;;6.97;3.73;;;13.50;99.90;;;;;;5044787;28;20200;-47
2022/06/12 05:11:43;;;;;;;7.63;4.23;;;13.50;99.90;;;;;;5037382;28;20230;-44
2022/06/12 05:14:09;;;;;;;6.77;3.43;;;13.60;99.90;;;;;;5051720;28;20256;-44
2022/06/12 05:16:40;;;;;;;9.23;3.90;;;13.60;99.90;;;;;;5045146;28;20225;-48
2022/06/12 05:19:10;;;;;;;9.40;4.10;;;13.70;99.90;;;;;;5049808;28;20589;-47
2022/06/12 05:21:37;;;;;;;10.47;4.17;;;13.80;99.90;;;;;;5058532;28;20234;-44
2022/06/12 05:24:04;;;;;;;12.00;4.47;;;14.00;99.90;;;;;;5055641;28;20199;-44
2022/06/12 05:26:33;;;;;;;8.13;4.63;;;14.10;99.90;;;;;;5043486;28;20202;-49
2022/06/12 05:29:00;;;;;;;9.60;3.77;;;14.20;99.90;;;;;;5056952;28;20210;-48
2022/06/12 05:31:27;;;;;;;8.03;3.90;;;14.40;99.90;;;;;;5041556;28;20218;-45
2022/06/12 05:33:54;;;;;;;7.17;3.60;;;14.40;99.90;;;;;;5057148;28;20203;-48
2022/06/12 05:36:22;;;;;;;11.47;3.93;;;14.60;99.90;;;;;;5046078;28;20682;-44
2022/06/12 05:38:48;;;;;;;12.57;4.50;;;14.70;99.90;;;;;;5049219;28;20217;-44
2022/06/12 05:41:16;;;;;;;9.60;4.23;;;14.70;99.90;;;;;;5045152;28;20268;-45
2022/06/12 05:43:45;;;;;;;11.27;4.13;;;14.90;99.90;;;;;;5041183;28;20932;-45
2022/06/12 05:46:14;;;;;;;7.77;3.30;;;15.00;99.90;;;;;;5043942;28;20202;-45
2022/06/12 05:48:42;;;;;;;11.87;3.63;;;15.20;99.90;;;;;;5033721;28;20711;-45
2022/06/12 05:51:12;;;;;;;8.63;3.67;;;15.40;99.90;;;;;;5054760;28;20272;-46
2022/06/12 05:53:39;;;;;;;8.93;4.00;;;15.60;99.90;;;;;;5045925;28;20445;-46
2022/06/12 05:56:08;;;;;;;9.02;3.60;;;15.80;99.90;;;;;;5049630;28;20437;-47
2022/06/12 05:58:36;;;;;;;9.63;3.80;;;16.00;99.90;;;;;;5049941;28;21124;-45
2022/06/12 06:01:06;;;;;;;9.32;3.72;;;16.20;99.90;;;;;;5050374;28;20444;-45
2022/06/12 06:03:34;;;;;;;8.53;3.23;;;16.50;99.90;;;;;;5037000;28;20203;-45
2022/06/12 06:06:01;;;;;;;10.17;3.07;;;16.50;99.90;;;;;;5044327;28;20206;-45
2022/06/12 06:08:29;;;;;;;7.47;2.87;;;16.50;99.90;;;;;;5050536;28;20664;-46
2022/06/12 06:10:56;;;;;;;12.67;3.07;;;16.50;99.90;;;;;;5047990;28;20234;-44
2022/06/12 06:13:23;;;;;;;7.27;3.03;;;16.60;99.90;;;;;;5046505;28;20202;-46
2022/06/12 06:15:50;;;;;;;6.82;3.30;;;16.70;99.90;;;;;;5041769;28;20531;-44
2022/06/12 06:18:19;;;;;;;9.93;3.03;;;17.00;99.90;;;;;;5048136;28;20924;-45
2022/06/12 06:20:45;;;;;;;6.73;2.97;;;17.10;99.90;;;;;;5040463;28;20349;-45
2022/06/12 06:23:12;;;;;;;10.40;2.73;;;17.10;99.90;;;;;;5046301;28;20669;-49
2022/06/12 06:25:40;;;;;;;10.03;2.20;;;17.10;99.90;;;;;;5035523;28;20304;-49
2022/06/12 06:28:08;;;;;;;6.10;3.23;;;17.00;99.90;;;;;;5051176;28;20194;-45
2022/06/12 06:30:36;;;;;;;12.73;2.87;;;17.10;99.90;;;;;;5046739;28;20215;-45
2022/06/12 06:33:03;;;;;;;9.50;2.40;;;17.20;99.90;;;;;;5046999;28;20207;-45
2022/06/12 06:35:31;;;;;;;6.33;2.67;;;17.30;99.90;;;;;;5037227;28;20582;-46
2022/06/12 06:37:59;;;;;;;10.43;2.60;;;17.40;99.90;;;;;;5047524;28;20210;-44
2022/06/12 06:40:28;;;;;;;8.70;2.07;;;17.50;99.90;;;;;;5046178;28;20231;-47
2022/06/12 06:42:55;;;;;;;12.40;2.30;;;17.50;99.90;;;;;;5048208;28;20214;-44
2022/06/12 06:48:09;;;;;;;10.60;2.43;;;17.70;99.90;;;;;;5051267;28;20191;-46
2022/06/12 06:50:38;;;;;;;6.90;2.10;;;17.80;99.90;;;;;;5046302;28;20582;-45
2022/06/12 06:53:06;;;;;;;7.17;2.20;;;17.80;99.90;;;;;;5048955;28;20199;-45
2022/06/12 06:55:33;;;;;;;12.13;2.57;;;17.80;99.90;;;;;;5047977;28;20195;-49
2022/06/12 06:58:01;;;;;;;8.53;2.43;;;17.90;99.90;;;;;;5057617;28;20202;-45
2022/06/12 07:00:31;;;;;;;6.13;2.17;;;17.90;99.90;;;;;;5049801;28;20230;-46
2022/06/12 07:02:58;;;;;;;4.43;1.70;;;18.00;99.90;;;;;;5049181;28;20558;-50
2022/06/12 07:05:25;;;;;;;6.13;1.87;;;18.00;99.90;;;;;;5042226;28;20210;-46
2022/06/12 07:07:54;;;;;;;10.43;2.30;;;18.00;99.90;;;;;;5048797;28;20587;-48
2022/06/12 07:10:25;;;;;;;6.63;2.13;;;18.00;99.90;;;;;;5047351;28;20215;-45
2022/06/12 07:12:53;;;;;;;10.07;1.97;;;18.10;99.90;;;;;;5047499;28;20650;-45
2022/06/12 07:15:20;;;;;;;6.40;1.73;;;18.20;99.90;;;;;;5043598;28;20207;-44
2022/06/12 07:17:48;;;;;;;10.43;1.70;;;18.30;99.90;;;;;;5059867;28;20198;-45
2022/06/12 07:20:24;;;;;;;9.20;1.97;;;18.40;99.90;;;;;;5061896;28;21100;-48
2022/06/12 07:22:51;;;;;;;8.73;1.97;;;18.50;99.90;;;;;;5047184;28;20670;-43
2022/06/12 07:25:19;;;;;;;5.73;1.70;;;18.50;99.90;;;;;;5049121;28;20243;-46
2022/06/12 07:27:47;;;;;;;9.87;2.13;;;18.60;99.90;;;;;;5053794;28;20547;-44
2022/06/12 07:30:17;;;;;;;7.63;1.63;;;18.60;99.90;;;;;;5048507;28;20217;-48
2022/06/12 07:32:45;;;;;;;5.47;1.50;;;18.60;99.90;;;;;;5049788;28;20199;-48
2022/06/12 07:35:14;;;;;;;7.77;2.17;;;;;;;;;;5045983;28;20361;-46
2022/06/12 07:37:44;;;;;;;7.03;2.13;;;;;;;;;;5041851;28;20570;-44
2022/06/12 07:40:16;;;;;;;4.57;1.30;;;;;;;;;;5045295;28;20232;-43
2022/06/12 07:42:46;;;;;;;4.70;1.33;;;;;;;;;;5044145;28;20200;-44
2022/06/12 07:45:15;;;;;;;7.43;1.93;;;;;;;;;;5041724;28;20199;-43
2022/06/12 07:47:41;;;;;;;6.90;1.40;;;19.00;99.90;;;;;;5061042;28;20248;-43
2022/06/12 07:50:09;;;;;;;4.77;1.83;;;19.00;99.90;;;;;;5050369;28;20219;-45
2022/06/12 07:52:38;;;;;;;4.77;1.90;;;19.10;99.90;;;;;;5038950;28;20211;-43
2022/06/12 07:55:07;;;;;;;4.50;1.50;;;19.10;99.90;;;;;;5053071;28;20205;-43
2022/06/12 07:57:33;;;;;;;5.37;1.20;;;19.20;99.90;;;;;;5051124;28;20700;-47
2022/06/12 08:00:02;;;;;;;6.43;1.40;;;19.30;99.30;;;;;;5051373;28;20242;-48
2022/06/12 08:02:39;;;;;;;7.07;2.10;;;19.30;99.30;;;;;;5063289;28;20686;-44
2022/06/12 08:05:07;;;;;;;6.33;1.90;;;19.30;99.40;;;;;;5060597;28;20195;-46
2022/06/12 08:07:34;;;;;;;5.83;1.83;;;19.40;99.30;;;;;;5042889;28;20224;-48
2022/06/12 08:10:03;;;;;;;6.30;1.77;;;19.50;99.70;;;;;;5047076;28;20213;-46
2022/06/12 08:12:31;;;;;;;5.70;1.67;;;19.60;99.40;;;;;;5055032;28;20195;-46
2022/06/12 08:14:58;;;;;;;7.47;1.67;;;19.70;98.90;;;;;;5050069;28;20527;-45
2022/06/12 08:17:26;;;;;;;5.97;1.60;;;19.80;99.30;;;;;;5049968;28;20200;-45
2022/06/12 08:22:37;;;;;;;4.20;1.30;;;19.90;97.90;;;;;;5044993;28;20927;-47
2022/06/12 08:25:05;;;;;;;7.10;1.83;;;19.90;97.80;;;;;;5053954;28;20641;-44
2022/06/12 08:27:32;;;;;;;7.30;1.47;;;20.10;97.70;;;;;;5055998;28;20202;-45
2022/06/12 08:29:59;;;;;;;6.13;1.80;;;20.20;97.20;;;;;;5050156;28;20229;-46
2022/06/12 08:32:27;;;;;;;3.40;1.40;;;20.20;97.20;;;;;;5049053;28;20198;-44
2022/06/12 08:34:58;;;;;;;4.93;1.50;;;20.20;97.00;;;;;;5052873;28;20199;-44
2022/06/12 08:37:30;;;;;;;4.47;1.33;;;20.30;96.30;;;;;;5043077;28;20210;-45
2022/06/12 08:39:57;;;;;;;3.33;1.30;;;20.30;96.00;;;;;;5054561;28;20219;-46
2022/06/12 08:42:31;;;;;;;9.63;1.80;;;20.30;95.40;;;;;;5045514;28;20314;-49
2022/06/12 08:45:07;;;;;;;3.30;1.53;;;20.30;95.00;;;;;;5042749;28;20211;-50
2022/06/12 08:47:40;;;;;;;2.73;1.20;;;20.30;94.50;;;;;;5046195;28;20710;-47
2022/06/12 08:50:12;;;;;;;3.50;1.17;;;20.40;94.50;;;;;;5044323;28;20227;-46
2022/06/12 08:52:46;;;;;;;6.03;1.87;;;20.50;94.80;;;;;;5050499;28;20208;-44
2022/06/12 08:55:19;;;;;;;4.30;1.67;;;20.60;95.40;;;;;;5031111;28;21082;-45
2022/06/12 08:57:52;;;;;;;3.23;1.40;;;20.60;94.90;;;;;;5054991;28;20199;-50
2022/06/12 09:00:27;;;;;;;10.80;2.03;;;20.60;95.10;;;;;;5045051;28;20227;-44
2022/06/12 09:02:55;;;;;;;7.97;1.50;;;20.80;95.10;;;;;;5055358;28;20206;-45
2022/06/12 09:05:27;;;;;;;5.63;1.50;;;20.90;94.90;;;;;;5048406;28;20206;-48
2022/06/12 09:08:01;;;;;;;5.50;1.53;;;20.80;94.40;;;;;;5045748;28;20234;-43
2022/06/12 09:10:33;;;;;;;3.90;1.20;;;20.70;93.80;;;;;;5041474;28;20227;-44
2022/06/12 09:13:14;;;;;;;5.43;1.53;;;20.70;93.80;;;;;;5045418;28;20207;-49
2022/06/12 09:15:48;;;;;;;7.27;1.70;;;20.90;93.60;;;;;;5046807;28;20198;-45
2022/06/12 09:18:38;;;;;;;4.57;1.47;;;21.00;93.50;;;;;;5040806;28;20198;-43
2022/06/12 09:21:11;;;;;;;4.87;1.30;;;21.10;94.00;;;;;;5052354;28;20670;-46
2022/06/12 09:23:45;;;;;;;3.70;1.40;;;21.20;93.00;;;;;;5063342;28;20207;-50
2022/06/12 09:26:20;;;;;;;6.77;1.60;;;21.20;92.40;;;;;;5039528;28;20197;-47
2022/06/12 09:28:53;;;;;;;4.90;1.70;;;21.20;92.60;;;;;;5061385;28;20199;-46
2022/06/12 09:31:25;;;;;;;7.27;1.40;;;21.20;92.80;;;;;;5046309;28;20390;-46
2022/06/12 09:34:02;;;;;;;3.90;1.30;;;21.20;92.80;;;;;;5043613;28;20210;-44
2022/06/12 09:36:43;;;;;;;3.43;1.43;;;21.20;93.10;;;;;;5042504;28;20683;-45
2022/06/12 09:39:24;;;;;;;4.70;1.50;;;21.30;92.40;;;;;;5047205;28;20253;-46
2022/06/12 09:42:03;;;;;;;6.57;1.63;;;21.40;92.50;;;;;;5047413;28;20201;-48
2022/06/12 09:44:41;;;;;;;4.60;1.13;;;21.40;91.60;;;;;;5046660;28;20214;-46
2022/06/12 09:47:12;;;;;;;4.97;1.37;;;21.40;92.60;;;;;;5036816;28;20203;-47
2022/06/12 09:49:54;;;;;;;12.13;1.80;;;21.50;91.60;;;;;;5044384;28;20588;-47
2022/06/12 09:52:45;;;;;;;4.23;1.30;;;21.50;89.80;;;;;;5059246;28;20282;-47
2022/06/12 09:55:17;;;;;;;5.10;1.30;;;21.60;90.70;;;;;;5044313;28;20314;-48
2022/06/12 09:57:49;;;;;;;5.73;1.30;;;21.50;91.10;;;;;;5038013;28;20202;-46
2022/06/12 10:00:22;;;;;;;5.80;1.73;;;21.40;90.90;;;;;;5049151;28;20225;-48
2022/06/12 10:03:00;;;;;;;3.33;1.10;;;21.30;90.70;;;;;;5037714;28;20203;-48
2022/06/12 10:05:36;;;;;;;4.67;1.30;;;21.40;90.70;;;;;;5058472;28;20218;-48
2022/06/12 10:08:09;;;;;;;4.97;1.57;;;21.50;90.80;;;;;;5043975;28;20670;-49
2022/06/12 10:10:42;;;;;;;5.03;1.57;;;21.60;90.30;;;;;;5045650;28;20246;-48
2022/06/12 10:13:13;;;;;;;5.47;1.40;;;21.60;90.10;;;;;;5048162;28;20211;-46
2022/06/12 10:15:46;;;;;;;5.37;1.37;;;21.70;89.20;;;;;;5047813;28;20203;-44
2022/06/12 10:18:17;;;;;;;3.50;1.30;;;21.80;88.20;;;;;;5042669;28;20671;-46
2022/06/12 10:20:49;;;;;;;3.87;1.10;;;21.70;87.60;;;;;;5036182;28;20301;-46
2022/06/12 10:23:16;;;;;;;3.30;1.40;;;21.70;88.20;;;;;;5049631;28;20199;-45
2022/06/12 10:25:48;;;;;;;6.70;1.43;;;21.70;89.00;;;;;;5045290;28;20203;-44
2022/06/12 10:28:28;;;;;;;5.23;1.50;;;21.70;87.60;;;;;;5044942;28;20207;-50
2022/06/12 10:31:17;;;;;;;5.07;1.17;;;21.80;87.90;;;;;;5046663;28;20214;-44
2022/06/12 10:33:48;;;;;;;4.17;1.10;;;21.90;87.10;;;;;;5047922;28;20199;-46
2022/06/12 10:36:24;;;;;;;5.20;1.20;;;22.10;95.00;;;;;;5051965;28;20194;-47
2022/06/12 10:38:51;;;;;;;5.00;1.20;;;22.20;96.90;;;;;;5055884;28;20198;-51
2022/06/12 10:41:22;;;;;;;2.70;1.03;;;22.10;98.80;;;;;;5054744;28;20298;-45
2022/06/12 10:43:51;;;;;;;7.33;1.67;;;22.20;99.30;;;;;;5045135;28;20623;-46
2022/06/12 10:46:21;;;;;;;3.60;1.10;;;22.20;95.80;;;;;;5046381;28;20645;-50
2022/06/12 10:49:01;;;;;;;4.40;1.60;;;22.30;91.70;;;;;;5052842;28;20195;-49
2022/06/12 10:51:36;;;;;;;4.23;1.13;;;22.40;81.60;;;;;;5056417;28;20362;-47
2022/06/12 10:54:12;;;;;;;6.67;1.20;;;22.60;81.90;;;;;;5047818;28;20203;-49
2022/06/12 10:56:45;;;;;;;4.17;1.10;;;22.70;80.20;;;;;;5061233;28;20658;-48
2022/06/12 10:59:32;;;;;;;6.88;1.35;;;22.70;81.00;;;;;;5045121;28;20206;-51
2022/06/12 11:02:28;;;;;;;3.00;1.17;;;22.80;79.30;;;;;;5046570;28;20219;-48
2022/06/12 11:05:08;;;;;;;4.32;1.30;;;22.80;76.30;;;;;;5051147;28;20740;-48
2022/06/12 11:07:40;;;;;;;1.95;1.10;;;22.70;77.40;;;;;;5050073;28;20691;-49
2022/06/12 11:10:23;;;;;;;5.15;1.40;;;22.80;76.50;;;;;;5056837;28;20214;-46
2022/06/12 11:13:14;;;;;;;7.90;1.75;;;22.80;75.30;;;;;;5051384;28;20242;-46
2022/06/12 11:16:02;;;;;;;3.50;1.30;;;22.80;76.90;;;;;;5047432;28;20221;-51
2022/06/12 11:18:41;;;;;;;6.55;1.52;;;22.80;77.50;;;;;;5054027;28;20208;-50
2022/06/12 11:21:18;;;;;;;4.75;1.42;;;23.00;75.80;;;;;;5051187;28;20237;-49
2022/06/12 11:24:07;;;;;;;4.22;1.60;;;23.00;77.00;;;;;;5048018;28;20548;-50
2022/06/12 11:26:56;;;;;;;5.13;1.30;;;23.10;76.90;;;;;;5051886;28;20381;-47
2022/06/12 11:29:46;;;;;;;6.18;1.10;;;23.10;76.20;;;;;;5050393;28;20886;-46
2022/06/12 11:32:20;;;;;;;4.47;1.30;;;23.00;74.30;;;;;;5039900;28;20210;-50
2022/06/12 11:35:10;;;;;;;6.57;1.40;;;22.90;75.40;;;;;;5051852;28;20195;-52
2022/06/12 11:37:52;;;;;;;5.57;1.45;;;22.90;76.00;;;;;;5046202;28;20286;-52
2022/06/12 11:40:26;;;;;;;5.03;1.38;;;23.00;75.50;;;;;;5047289;28;20223;-49
2022/06/12 11:43:07;;;;;;;4.30;1.42;;;22.80;77.20;;;;;;5050865;28;20198;-52
2022/06/12 11:45:42;;;;;;;5.10;1.30;;;22.60;78.60;;;;;;5046942;28;20201;-50
2022/06/12 11:48:21;;;;;;;5.00;1.30;;;22.40;79.70;;;;;;5037707;28;20255;-44
2022/06/12 11:50:53;;;;;;;5.65;1.63;;;22.30;80.70;;;;;;5053601;28;20226;-46
2022/06/12 11:53:36;;;;;;;5.13;1.45;;;22.20;81.40;;;;;;5039514;28;20211;-47
2022/06/12 11:56:18;;;;;;;6.75;1.40;;;22.20;81.90;;;;;;5056350;28;20187;-45
2022/06/12 11:59:00;;;;;;;5.30;1.38;;;22.20;82.50;;;;;;5059916;28;20206;-44
2022/06/12 12:01:35;;;;;;;4.45;1.48;;;22.40;83.50;;;;;;5052494;28;20218;-44
2022/06/12 12:04:44;;;;;;;5.90;1.30;;;22.50;85.00;;;;;;5040818;28;20214;-47
2022/06/12 12:07:28;;;;;;;3.72;1.27;;;22.60;84.50;;;;;;5041014;28;20218;-47
2022/06/12 12:10:06;;;;;;;4.60;1.58;;;22.70;83.20;;;;;;5052327;28;20223;-47
2022/06/12 12:12:38;;;;;;;4.05;1.50;;;23.00;81.90;;;;;;5048767;28;20206;-48
2022/06/12 12:15:15;;;;;;;5.75;1.33;;;23.30;99.90;;;;;;5052991;28;20196;-48
2022/06/12 12:17:45;;;;;;;4.70;1.42;;;23.40;99.90;;;;;;5045116;28;20229;-44
2022/06/12 12:20:19;;;;;;;3.35;1.20;;;23.40;95.20;;;;;;5041677;28;20219;-47
2022/06/12 12:22:50;;;;;;;3.88;1.55;;;23.40;90.70;;;;;;5056142;28;20543;-45
2022/06/12 12:25:23;;;;;;;4.93;1.30;;;23.40;77.80;;;;;;5044607;28;20234;-43
2022/06/12 12:27:55;;;;;;;3.95;1.25;;;23.20;78.60;;;;;;5059898;28;20195;-45
2022/06/12 12:30:25;;;;;;;5.93;1.48;;;23.00;77.10;;;;;;5054059;28;20223;-44
2022/06/12 12:32:54;;;;;;;3.53;1.20;;;22.70;77.40;;;;;;5050613;28;20229;-46
2022/06/12 12:41:14;;;;;;;4.22;1.77;;;22.30;81.50;;;;;;5002811;28;20382;-45
2022/06/12 12:43:52;;;;;;;7.25;2.13;;;22.30;83.70;;;;;;5046838;28;20225;-44
2022/06/12 12:46:20;;;;;;;5.18;1.77;;;22.40;84.00;;;;;;5051116;28;20270;-46
2022/06/12 12:48:48;;;;;;;3.42;1.42;;;22.50;83.80;;;;;;5050382;28;20198;-45
2022/06/12 12:51:32;;;;;;;7.25;1.77;;;22.60;82.20;;;;;;5040678;28;20224;-46
2022/06/12 12:54:12;;;;;;;5.45;1.77;;;22.70;80.50;;;;;;5052634;28;20206;-45
2022/06/12 12:56:50;;;;;;;5.70;1.70;;;22.60;80.90;;;;;;5048886;28;20202;-48
2022/06/12 12:59:20;;;;;;;5.63;1.48;;;22.50;82.30;;;;;;5054517;28;20199;-43
2022/06/12 13:01:49;;;;;;;6.15;1.75;;;22.40;83.30;;;;;;5051835;28;20222;-45
2022/06/12 13:04:18;;;;;;;3.53;1.75;;;22.50;85.20;;;;;;5038895;28;20202;-45
2022/06/12 13:07:15;;;;;;;5.95;1.60;;;22.50;84.20;;;;;;5050853;28;20199;-45
2022/06/12 13:09:56;;;;;;;7.85;2.53;;;22.40;83.40;;;;;;5036177;28;20235;-47
2022/06/12 13:12:41;;;;;;;5.68;1.40;;;22.30;84.70;;;;;;5044812;28;20203;-45
2022/06/12 13:15:23;;;;;;;5.32;1.45;;;22.20;84.60;;;;;;5048764;28;20434;-45
2022/06/12 13:17:58;;;;;;;4.72;1.70;;;22.20;84.10;;;;;;5051806;28;20887;-46
2022/06/12 13:20:38;;;;;;;7.78;2.20;;;22.20;86.10;;;;;;5051592;28;20599;-49
2022/06/12 13:23:15;;;;;;;4.45;1.90;;;22.20;87.00;;;;;;5047219;28;20194;-44
2022/06/12 13:25:45;;;;;;;4.90;1.42;;;22.00;87.10;;;;;;5054002;28;20206;-49
2022/06/12 13:28:20;;;;;;;4.50;1.40;;;21.70;87.50;;;;;;5050441;28;20188;-45
2022/06/12 13:30:49;;;;;;;4.60;1.40;;;21.50;87.70;;;;;;5048868;28;20221;-47
2022/06/12 13:33:20;;;;;;;3.75;1.65;;;21.40;87.80;;;;;;5050228;28;20206;-46